Blackburn, North Carolina
Current Conditions -  °F | °C
As of 5:53 PM on Friday 28 Nov 2014 (Local Time) from KHKY Reporting Station
Clear Clear  
Wind Chill: 39°   Ceiling: Unl
Heat Index: 39°   Visibility: 10mi
Dew Point: 20°   Wind: 3mph
Humidity: 46%   Direction: 180°S
Pressure: 30.26"   Gusts: NA
Location:  35.6271°N, 81.2599°W
Report Text: KHKY 282253Z AUTO 18003KT 10SM CLR 04/M07 A3026 RMK AO2 SLP245 T00391067
Loading
Personal Weather Stations






























Interactive Weather Map New forecast layout! Learn more

10-Day Weather Forecast

Advertisements
Track Severe Weather on mobile